East Millbury, Massachusetts
Current Conditions -  °F | °C
As of 9:54 AM on Saturday 20 Dec 2014 (Local Time) from KORH Reporting Station
Scattered Clouds Scattered Clouds  
Wind Chill: 21°   Ceiling: Unl
Heat Index: 28°   Visibility: 10mi
Dew Point: 16°   Wind: 7mph
Humidity: 61%   Direction: 20°NNE
Pressure: 30.25"   Gusts: NA
Location:  42.1926°N, 71.7739°W
Report Text: KORH 201454Z 02006KT 10SM SCT025 M02/M09 A3025 RMK AO2 SLP257 T10221089 51012
Loading
Personal Weather Stations






























Interactive Weather Map New forecast layout! Learn more

10-Day Weather Forecast

Advertisements
Track Severe Weather on mobile